ADDS TAF Board (Experimental) INFO Settings
IDs: Format: Expanded Condensed

KCLE - Cleveland/Hopkins In, OH, US

Issued at 1729 UTC 30 Aug 2016
Updated at 1850 UTC 30 Aug 2016
Time1751Z 30/19Z 30/20Z 30/21Z 30/22Z 30/23Z 31/00Z 31/01Z 31/02Z 31/03Z 31/04Z 31/05Z 31/06Z 31/07Z
Type OBS PRVL PRVL PRVL PRVL PRVL PRVL PRVL PRVL PRVL PRVL PRVL PRVL PRVL
VIS 10 >6 >6 >6 >6 >6 >6 >6 >6 >6 >6 >6 >6 >6
CIG 250 250 250 250 250 250 250 250 250 250 250 250 250 250
Cover BKN BKN BKN BKN BKN BKN BKN BKN BKN BKN BKN BKN BKN BKN
FltCat VFR VFR VFR VFR VFR VFR VFR VFR VFR VFR VFR VFR VFR VFR
WX -- -- -- -- -- -- -- -- -- -- -- -- -- --
WDir VRB 360 360 360 360 360 360 360 360 360 360 360 360 360
WSpd 5 5 5 5 5 5 5 5 5 5 5 5 5 5
WGst -- -- -- -- -- -- -- -- -- -- -- -- -- --
R06/24
XWnd VRB 4 4 4 4 4 4 4 4 4 4 4 4 4
HWnd VRB 3 3 3 3 3 3 3 3 3 3 3 3 3
R10/28
XWnd VRB 5 5 5 5 5 5 5 5 5 5 5 5 5
HWnd VRB -0 -0 -0 -0 -0 -0 -0 -0 -0 -0 -0 -0 -0

Raw TAF
KCLE 301729Z 3018/3124 36005KT P6SM FEW060 BKN250
  FM310800 24005KT P6SM VCSH BKN050 OVC100
  FM311200 21003KT P6SM OVC050
  TEMPO 3112/3115 4SM -SHRA OVC035
  FM311500 28004KT P6SM OVC035
  TEMPO 3115/3118 5SM -SHRA
  FM311900 33008KT P6SM BKN040


Raw METAR
KCLE 301751Z VRB05KT 10SM BKN250 31/09 A3015 RMK AO2 SLP204 T03110089 10311 20183 58015
KCLE 301651Z VRB03KT 10SM SCT250 30/10 A3017 RMK AO2 SLP210 T03000100
KCLE 301551Z 11004KT 10SM FEW250 28/11 A3019 RMK AO2 SLP216 T02830111

METAR Board
Radar Display
Forecast Discussion

TAF Board Legend

Potential Impact
Threat None Slight Moderate High
Visibility (sm) ≥5.1 5.1>X≥3 3>X≥1 <1
Ceiling (100 ft) ≥30.1 30.1>X≥10 10>X≥5 <5
Wind Speed (kt) <10 10≤X<20 20≤X<30 ≥30
Wind Gust (kt) <15 15≤X<25 25≤X<35 ≥35
Weather No Wx Reported VCTS,-TS,-FZRA,SN TS,FZRA +TS,+FZRA,+SN